Time;durP1;ratioP1;P1;durP2;ratioP2;P2;SDS_P1;SDS_P2;PMS_P1;PMS_P2;Temp;Humidity;BMP_temperature;BMP_pressure;BME280_temperature;BME280_humidity;BME280_pressure;Samples;Min_cycle;Max_cycle;Signal;HPM_P1;HPM_P2
2022/06/28 00:00:56;;;;;;;7.53;6.03;;;;;;;21.07;62.54;100092.81;2085811;84;21076;-71
2022/06/28 00:03:59;;;;;;;9.73;6.97;;;;;;;21.04;62.62;100088.17;2080558;84;20997;-71
2022/06/28 00:07:01;;;;;;;8.08;7.03;;;;;;;21.02;62.83;100084.89;2079957;84;22284;-74
2022/06/28 00:10:03;;;;;;;10.25;6.22;;;;;;;20.96;62.92;100081.80;2083872;84;21048;-83
2022/06/28 00:13:04;;;;;;;11.65;7.47;;;;;;;20.95;63.04;100081.51;2083148;84;21070;-73
2022/06/28 00:16:06;;;;;;;8.38;6.83;;;;;;;20.94;63.06;100073.11;2081488;84;21028;-73
2022/06/28 00:19:08;;;;;;;8.30;6.70;;;;;;;20.90;63.14;100070.61;2084749;84;21024;-72
2022/06/28 00:22:11;;;;;;;11.97;6.53;;;;;;;20.79;63.28;100069.55;2061805;84;20993;-85
2022/06/28 00:25:12;;;;;;;8.18;7.08;;;;;;;20.76;63.49;100070.55;2065699;84;20985;-71
2022/06/28 00:28:14;;;;;;;10.15;7.87;;;;;;;20.78;63.71;100065.76;2066472;84;21588;-70
2022/06/28 00:31:15;;;;;;;9.40;6.65;;;;;;;20.77;63.86;100073.53;2050653;85;21078;-71
2022/06/28 00:34:17;;;;;;;10.00;7.83;;;;;;;20.76;64.04;100078.11;2049323;85;21022;-71
2022/06/28 00:37:18;;;;;;;9.38;7.97;;;;;;;20.74;64.15;100074.00;2053296;85;20981;-71
2022/06/28 00:40:20;;;;;;;11.12;7.85;;;;;;;20.72;64.16;100079.65;2054440;85;20994;-78
2022/06/28 00:43:22;;;;;;;10.13;7.85;;;;;;;20.72;64.21;100081.50;2055606;85;21086;-75
2022/06/28 00:46:26;;;;;;;7.87;7.08;;;;;;;20.71;64.45;100081.22;2058406;85;20947;-72
2022/06/28 00:49:30;;;;;;;10.78;8.43;;;;;;;20.69;64.59;100083.31;2051282;85;21057;-71
2022/06/28 00:52:31;;;;;;;9.95;8.65;;;;;;;20.63;64.58;100093.69;2053199;85;20982;-73
2022/06/28 00:55:35;;;;;;;9.35;7.85;;;;;;;20.59;64.64;100095.51;2052599;85;21041;-70
2022/06/28 00:58:36;;;;;;;9.45;7.78;;;;;;;20.62;64.87;100090.18;2047616;85;21090;-76
2022/06/28 01:01:37;;;;;;;13.22;7.33;;;;;;;20.62;65.16;100090.18;2051622;85;21025;-72
2022/06/28 01:04:40;;;;;;;9.65;7.78;;;;;;;20.58;65.36;100095.23;2033241;85;22281;-72
2022/06/28 01:07:42;;;;;;;9.38;7.83;;;;;;;20.58;65.37;100101.97;2052889;85;20986;-71
2022/06/28 01:10:46;;;;;;;10.88;8.20;;;;;;;20.55;65.72;100142.86;2056019;85;21050;-71
2022/06/28 01:14:03;;;;;;;8.93;8.03;;;;;;;20.51;65.97;100129.51;2056255;85;21117;-74
2022/06/28 01:17:07;;;;;;;8.53;7.72;;;;;;;20.54;66.12;100135.81;2050137;85;21027;-85
2022/06/28 01:20:11;;;;;;;12.23;7.80;;;;;;;20.55;66.18;100134.78;2050782;85;21042;-72
2022/06/28 01:23:27;;;;;;;9.38;8.38;;;;;;;20.57;66.29;100134.00;2052367;85;21096;-71
2022/06/28 01:26:33;;;;;;;11.68;7.90;;;;;;;20.62;66.30;100128.45;2046214;85;21027;-71
2022/06/28 01:29:36;;;;;;;8.93;7.95;;;;;;;20.64;66.14;100139.30;2051483;84;21046;-83
2022/06/28 01:32:41;;;;;;;12.37;8.15;;;;;;;20.67;66.31;100142.06;2052108;84;21031;-72
2022/06/28 01:35:44;;;;;;;8.13;7.08;;;;;;;20.68;66.35;100143.69;2046163;85;21450;-71
2022/06/28 01:38:48;;;;;;;8.80;7.97;;;;;;;20.68;66.41;100142.34;2053762;85;21030;-72
2022/06/28 01:41:51;;;;;;;11.00;7.65;;;;;;;20.67;66.37;100141.53;2056989;85;21057;-71
2022/06/28 01:44:56;;;;;;;9.53;7.58;;;;;;;20.69;66.29;100138.58;2056422;85;21081;-87
2022/06/28 01:48:00;;;;;;;9.73;7.90;;;;;;;20.67;66.25;100138.02;2048861;85;21054;-71
2022/06/28 01:51:20;;;;;;;11.33;7.90;;;;;;;20.68;66.25;100146.39;2049726;85;21022;-86
2022/06/28 01:54:22;;;;;;;9.50;7.75;;;;;;;20.66;66.24;100149.83;2053399;85;21041;-72
2022/06/28 01:57:25;;;;;;;9.45;7.12;;;;;;;20.68;66.34;100153.13;2054701;85;21465;-75
2022/06/28 02:00:33;;;;;;;9.60;8.20;;;;;;;20.71;66.37;100149.97;2060094;85;21706;-74
2022/06/28 02:03:35;;;;;;;10.10;7.58;;;;;;;20.66;66.37;100157.39;2054397;85;21027;-71
2022/06/28 02:06:56;;;;;;;7.53;6.85;;;;;;;20.66;66.36;100157.39;2048843;85;21057;-75
2022/06/28 02:09:59;;;;;;;8.38;7.37;;;;;;;20.60;66.38;100160.48;2023938;85;21029;-85
2022/06/28 02:13:05;;;;;;;8.90;8.00;;;;;;;20.57;66.52;100175.77;2050798;85;21005;-76
2022/06/28 02:16:08;;;;;;;9.40;7.72;;;;;;;20.63;66.77;100169.17;2049234;85;21031;-72
2022/06/28 02:19:09;;;;;;;10.10;7.40;;;;;;;20.66;66.63;100170.87;2049985;85;21050;-74
2022/06/28 02:22:14;;;;;;;9.60;7.85;;;;;;;20.70;66.76;100177.45;2055246;85;21121;-72
2022/06/28 02:25:17;;;;;;;16.12;8.75;;;;;;;20.72;66.75;100175.86;2054059;85;21015;-72
2022/06/28 02:28:18;;;;;;;9.43;7.60;;;;;;;20.74;67.11;100173.23;2049227;84;21130;-72
2022/06/28 02:31:20;;;;;;;9.00;7.37;;;;;;;20.77;67.21;100176.80;2058215;84;21101;-72
2022/06/28 02:41:01;;;;;;;9.85;7.37;;;;;;;20.86;67.62;100189.95;2059853;84;21600;-73
2022/06/28 02:44:04;;;;;;;12.40;7.50;;;;;;;20.88;67.82;100200.80;2055040;84;21014;-73
2022/06/28 02:47:06;;;;;;;8.90;7.67;;;;;;;20.89;67.81;100203.81;2056255;84;21136;-73
2022/06/28 02:50:10;;;;;;;13.38;7.85;;;;;;;20.93;67.91;100204.98;2057605;84;21540;-71
2022/06/28 02:53:11;;;;;;;8.63;7.25;;;;;;;20.94;67.95;100201.22;2060254;84;21631;-72
2022/06/28 02:56:14;;;;;;;10.15;7.67;;;;;;;20.99;67.88;100208.09;2053220;84;20955;-73
2022/06/28 02:59:16;;;;;;;9.83;7.03;;;;;;;21.02;67.81;100214.36;2053648;84;21022;-73
2022/06/28 03:02:19;;;;;;;11.48;6.72;;;;;;;21.08;67.92;100217.19;2062948;84;20962;-73
2022/06/28 03:05:22;;;;;;;7.90;6.50;;;;;;;21.13;67.88;100222.70;2059539;84;20975;-72
2022/06/28 03:08:24;;;;;;;10.55;7.67;;;;;;;21.16;67.91;100226.28;2053195;84;21037;-71
2022/06/28 03:11:26;;;;;;;10.15;7.17;;;;;;;21.24;68.04;100226.75;2041018;84;21529;-72
2022/06/28 03:14:29;;;;;;;7.10;6.40;;;;;;;21.36;68.20;100229.98;2057940;84;21077;-73
2022/06/28 03:17:31;;;;;;;14.47;7.00;;;;;;;21.48;68.23;100224.07;2059318;84;21105;-72
2022/06/28 03:20:34;;;;;;;7.15;6.28;;;;;;;21.65;67.91;100228.22;2053882;84;21524;-72
2022/06/28 03:23:35;;;;;;;7.75;6.72;;;;;;;21.83;67.48;100234.02;2060088;84;21577;-75
2022/06/28 03:26:37;;;;;;;8.58;6.65;;;;;;;22.00;67.36;100246.25;2056940;84;21061;-72
2022/06/28 03:29:39;;;;;;;9.28;6.60;;;;;;;22.14;66.84;100253.84;2045837;84;21069;-72
2022/06/28 03:32:42;;;;;;;9.75;6.92;;;;;;;22.26;66.61;100242.20;2078375;84;21026;-81
2022/06/28 03:35:46;;;;;;;9.48;6.78;;;;;;;22.37;66.22;100234.05;2078550;84;21525;-72
2022/06/28 03:38:47;;;;;;;11.20;6.85;;;;;;;22.48;65.96;100231.54;2080823;84;21056;-72
2022/06/28 03:41:53;;;;;;;11.83;6.53;;;;;;;22.55;65.69;100218.67;2080597;84;21041;-71
2022/06/28 03:44:55;;;;;;;8.10;7.33;;;;;;;22.60;65.47;100225.53;2079539;84;21084;-72
2022/06/28 03:47:57;;;;;;;7.10;6.15;;;;;;;22.63;65.32;100225.04;2077510;84;21068;-77
2022/06/28 03:51:10;;;;;;;8.78;6.28;;;;;;;22.68;65.20;100228.38;2072816;84;21029;-73
2022/06/28 03:54:13;;;;;;;7.78;6.97;;;;;;;22.70;65.11;100236.54;2080931;84;21030;-71
2022/06/28 03:57:16;;;;;;;8.48;6.37;;;;;;;22.73;64.91;100254.98;2080107;84;21057;-71
2022/06/28 04:00:18;;;;;;;7.08;6.47;;;;;;;22.78;64.83;100267.25;2082311;84;21065;-72
2022/06/28 04:03:22;;;;;;;8.68;6.70;;;;;;;22.81;64.71;100270.81;2079808;84;21101;-76
2022/06/28 04:06:23;;;;;;;9.10;6.70;;;;;;;22.84;64.72;100285.73;2081586;84;21576;-74
2022/06/28 04:09:26;;;;;;;7.45;6.53;;;;;;;22.85;64.74;100290.61;2081838;84;20958;-90
2022/06/28 04:12:29;;;;;;;7.50;6.70;;;;;;;22.82;64.74;100285.16;2078594;84;21115;-89
2022/06/28 04:15:34;;;;;;;7.05;6.35;;;;;;;22.86;64.81;100281.42;2080839;84;21057;-76
2022/06/28 04:18:38;;;;;;;11.57;6.22;;;;;;;22.88;64.83;100273.89;2082706;84;21033;-71
2022/06/28 04:21:45;;;;;;;8.53;6.87;;;;;;;22.92;64.83;100278.58;2082872;84;21049;-71
2022/06/28 04:24:48;;;;;;;9.18;7.00;;;;;;;22.97;64.80;100275.16;2078293;84;21107;-73
2022/06/28 04:27:56;;;;;;;10.30;6.78;;;;;;;23.01;64.92;100284.44;2079440;84;21105;-72
2022/06/28 04:30:55;;;;;;;7.40;6.70;;;;;;;23.03;64.78;100289.89;2055360;85;21057;-86
2022/06/28 04:33:58;;;;;;;7.85;6.80;;;;;;;23.05;64.94;100291.80;2050635;85;21086;-72
2022/06/28 04:37:03;;;;;;;8.10;7.30;;;;;;;23.07;64.94;100295.63;2056394;84;21513;-73
2022/06/28 04:40:06;;;;;;;8.38;7.62;;;;;;;23.06;64.99;100289.94;2055369;85;22358;-72
2022/06/28 04:43:12;;;;;;;13.48;7.95;;;;;;;23.09;65.10;100292.66;2053773;85;21153;-73
2022/06/28 04:46:14;;;;;;;8.85;7.70;;;;;;;23.13;65.15;100297.89;2031850;85;21489;-71
2022/06/28 04:49:17;;;;;;;8.10;7.30;;;;;;;23.16;65.35;100290.63;2057108;85;21608;-72
2022/06/28 04:52:20;;;;;;;10.65;7.20;;;;;;;23.19;65.27;100288.24;2050157;85;21007;-73
2022/06/28 04:55:24;;;;;;;8.28;7.40;;;;;;;23.25;65.33;100287.80;2051536;85;21013;-72
2022/06/28 04:58:32;;;;;;;10.53;6.97;;;;;;;23.36;65.30;100302.31;2053435;85;21062;-85
2022/06/28 05:01:34;;;;;;;9.53;7.78;;;;;;;23.43;65.41;100300.28;2054981;85;21398;-75
2022/06/28 05:04:35;;;;;;;7.92;7.10;;;;;;;23.56;65.25;100305.87;2052475;85;20981;-72
2022/06/28 05:07:47;;;;;;;7.58;6.70;;;;;;;23.76;65.21;100295.89;2050227;84;21366;-74
2022/06/28 05:10:50;;;;;;;10.65;9.20;;;;;;;23.93;64.97;100286.67;2046598;85;21018;-71
2022/06/28 05:14:06;;;;;;;9.08;8.13;;;;;;;23.93;64.61;100289.89;2043016;84;21404;-77
2022/06/28 05:17:11;;;;;;;9.18;7.80;;;;;;;23.86;64.75;100283.85;2053560;85;21047;-72
2022/06/28 05:20:13;;;;;;;8.68;7.87;;;;;;;23.71;64.80;100279.88;2051235;85;21094;-74
2022/06/28 05:23:14;;;;;;;12.25;7.85;;;;;;;23.60;64.94;100279.41;2052446;85;21009;-72
2022/06/28 05:26:34;;;;;;;8.93;7.72;;;;;;;23.53;64.98;100281.45;2052315;85;21674;-72
2022/06/28 05:29:56;;;;;;;8.63;7.80;;;;;;;23.49;65.11;100274.37;2069763;84;21073;-77
2022/06/28 05:33:01;;;;;;;8.73;7.92;;;;;;;23.51;65.19;100272.78;2056729;84;21537;-80
2022/06/28 05:36:04;;;;;;;9.08;8.18;;;;;;;23.53;65.24;100266.56;2075283;84;21627;-73
2022/06/28 05:39:06;;;;;;;8.65;7.85;;;;;;;23.51;65.26;100253.83;2079612;84;21019;-73
2022/06/28 05:42:07;;;;;;;9.20;8.35;;;;;;;23.49;65.52;100251.36;2078337;84;21036;-79
2022/06/28 05:45:10;;;;;;;8.93;7.78;;;;;;;23.53;65.45;100246.25;2077829;84;21587;-75
2022/06/28 05:48:15;;;;;;;9.03;7.65;;;;;;;23.57;65.38;100251.47;2072589;84;21050;-72
2022/06/28 05:51:15;;;;;;;10.50;8.18;;;;;;;23.64;65.42;100265.64;2069284;84;21124;-72
2022/06/28 05:54:17;;;;;;;9.33;8.53;;;;;;;23.73;65.71;100266.59;2061967;84;21073;-79
2022/06/28 05:57:18;;;;;;;9.35;8.45;;;;;;;23.80;65.32;100272.13;2076641;84;21069;-73
2022/06/28 06:00:20;;;;;;;9.30;8.25;;;;;;;23.89;65.43;100272.52;2077439;84;21017;-76
2022/06/28 06:03:22;;;;;;;9.85;7.97;;;;;;;24.09;65.59;100271.95;2078591;84;21033;-72
2022/06/28 06:06:24;;;;;;;8.40;7.65;;;;;;;24.50;65.42;100285.48;2077320;84;21505;-75
2022/06/28 06:09:28;;;;;;;10.35;7.65;;;;;;;24.98;64.94;100301.96;2074033;84;21071;-72
2022/06/28 06:12:30;;;;;;;9.25;7.17;;;;;;;25.41;64.53;100300.16;2079525;84;21083;-73
2022/06/28 06:15:32;;;;;;;9.78;7.35;;;;;;;25.79;63.88;100302.30;2077164;84;21143;-72
2022/06/28 06:18:35;;;;;;;7.95;7.05;;;;;;;26.15;63.08;100311.48;2080238;84;21095;-77
2022/06/28 06:21:37;;;;;;;8.98;7.58;;;;;;;26.27;62.31;100309.89;2077695;84;20988;-76
2022/06/28 06:24:38;;;;;;;10.38;7.42;;;;;;;26.45;61.99;100315.41;2075761;84;21033;-72
2022/06/28 06:27:44;;;;;;;7.92;7.12;;;;;;;26.75;61.54;100322.33;2073038;84;21088;-72
2022/06/28 06:30:46;;;;;;;9.33;7.08;;;;;;;26.98;60.70;100328.35;2060262;84;21022;-72
2022/06/28 06:33:57;;;;;;;8.23;7.43;;;;;;;26.68;59.84;100337.27;2031694;84;21065;-72
2022/06/28 06:36:55;;;;;;;7.90;7.10;;;;;;;26.22;60.05;100347.97;2044905;84;21456;-76
2022/06/28 06:39:56;;;;;;;8.20;7.40;;;;;;;25.82;60.32;100355.61;2056581;84;20981;-73
2022/06/28 06:43:00;;;;;;;7.67;6.70;;;;;;;25.42;60.86;100359.64;2055815;84;21065;-73
2022/06/28 06:46:05;;;;;;;11.05;6.87;;;;;;;25.21;61.15;100374.95;2056498;84;21054;-87
2022/06/28 06:49:09;;;;;;;9.08;7.53;;;;;;;24.87;61.56;100391.95;2031910;84;21035;-72
2022/06/28 06:52:11;;;;;;;7.80;7.00;;;;;;;24.67;62.19;100397.97;2059609;84;21407;-72
2022/06/28 06:55:14;;;;;;;7.47;6.70;;;;;;;24.42;62.79;100405.77;2055053;84;21084;-73
2022/06/28 06:58:16;;;;;;;8.88;6.78;;;;;;;24.15;62.82;100416.77;2053776;84;21037;-73
2022/06/28 07:01:20;;;;;;;6.70;6.10;;;;;;;23.98;63.35;100421.41;2060615;84;20987;-73
2022/06/28 07:04:21;;;;;;;18.90;6.60;;;;;;;23.82;63.63;100430.36;2061415;84;21133;-72
2022/06/28 07:07:26;;;;;;;6.95;6.25;;;;;;;23.53;63.82;100424.17;2056749;84;21058;-74
2022/06/28 07:10:26;;;;;;;8.00;6.60;;;;;;;23.31;64.07;100431.63;2035589;84;21090;-75
2022/06/28 07:13:28;;;;;;;7.72;6.92;;;;;;;23.17;64.51;100430.30;2059474;84;21872;-74
2022/06/28 07:16:30;;;;;;;7.60;6.70;;;;;;;23.04;64.73;100434.13;2058266;84;21468;-73
2022/06/28 07:19:31;;;;;;;7.53;6.62;;;;;;;22.92;65.08;100440.06;2051045;84;21053;-74
2022/06/28 07:22:33;;;;;;;7.35;6.58;;;;;;;22.85;65.39;100439.40;2058277;84;21066;-75
2022/06/28 07:25:37;;;;;;;7.75;6.78;;;;;;;22.84;65.87;100449.41;2058189;84;21019;-72
2022/06/28 07:28:39;;;;;;;7.45;6.75;;;;;;;22.83;66.28;100451.29;2059924;84;21542;-74
2022/06/28 07:31:42;;;;;;;7.05;6.45;;;;;;;22.81;66.25;100464.77;2065831;85;21050;-75
2022/06/28 07:34:46;;;;;;;7.00;6.30;;;;;;;22.75;66.10;100475.16;2059897;85;21080;-73
2022/06/28 07:37:48;;;;;;;9.13;6.30;;;;;;;22.74;66.41;100472.98;2058322;85;20983;-74
2022/06/28 07:40:54;;;;;;;8.43;6.70;;;;;;;22.73;66.43;100471.36;2061554;85;21169;-73
2022/06/28 07:43:59;;;;;;;7.80;6.80;;;;;;;22.74;66.60;100483.81;2066969;84;21044;-72
2022/06/28 07:47:02;;;;;;;9.23;7.33;;;;;;;22.70;66.62;100484.01;2024473;85;21073;-72
2022/06/28 07:53:25;;;;;;;7.25;6.60;;;;;;;22.71;67.11;100485.64;2057806;85;21558;-87
2022/06/28 07:56:29;;;;;;;7.78;6.83;;;;;;;22.70;67.46;100475.08;2047191;85;21017;-72
2022/06/28 07:59:31;;;;;;;8.65;6.83;;;;;;;22.74;68.07;100463.52;2063967;85;21056;-75
2022/06/28 08:02:33;;;;;;;7.70;6.85;;;;;;;22.86;67.46;100472.14;2061822;85;21058;-73
2022/06/28 08:05:34;;;;;;;10.30;7.08;;;;;;;23.00;67.32;100466.78;2060391;84;21477;-73
2022/06/28 08:08:37;;;;;;;9.20;6.85;;;;;;;23.17;67.52;100469.03;2060237;85;21069;-72
2022/06/28 08:11:39;;;;;;;11.38;7.45;;;;;;;23.27;67.27;100463.80;2058838;85;21478;-72
2022/06/28 08:14:41;;;;;;;8.05;7.20;;;;;;;23.35;67.18;100469.36;2061855;85;21056;-76
2022/06/28 08:17:43;;;;;;;7.12;6.53;;;;;;;23.58;67.12;100475.18;2060981;85;21598;-74
2022/06/28 08:20:49;;;;;;;6.45;5.90;;;;;;;23.75;66.80;100481.19;2056249;84;21057;-71
2022/06/28 08:23:51;;;;;;;5.85;5.35;;;;;;;23.85;66.23;100489.47;2058723;85;21093;-72
2022/06/28 08:26:53;;;;;;;5.47;4.97;;;;;;;23.80;65.13;100492.12;2059104;84;21072;-84
2022/06/28 08:29:55;;;;;;;5.95;4.50;;;;;;;23.66;65.29;100488.33;2062622;84;21123;-73
2022/06/28 08:32:56;;;;;;;6.05;4.67;;;;;;;23.70;65.08;100505.75;2049537;84;21555;-73
2022/06/28 08:35:58;;;;;;;7.17;5.08;;;;;;;23.73;64.88;100503.62;2055813;84;21145;-72
2022/06/28 08:39:00;;;;;;;5.75;4.78;;;;;;;23.77;64.98;100508.86;2057411;84;20980;-81
2022/06/28 08:42:05;;;;;;;4.85;4.45;;;;;;;23.77;64.68;100508.86;2052970;84;21074;-72
2022/06/28 08:45:09;;;;;;;7.17;5.10;;;;;;;23.75;64.67;100515.05;2056056;84;21006;-75
2022/06/28 08:48:24;;;;;;;5.00;4.28;;;;;;;23.83;64.58;100519.53;2054325;84;21040;-75
2022/06/28 08:51:30;;;;;;;5.62;4.30;;;;;;;23.94;63.93;100525.95;2061131;84;21567;-74
2022/06/28 08:54:31;;;;;;;5.50;4.12;;;;;;;23.85;63.46;100522.83;2060015;84;21047;-74
2022/06/28 08:57:35;;;;;;;5.28;4.17;;;;;;;23.79;63.60;100529.73;2055678;84;20999;-72
2022/06/28 09:00:36;;;;;;;4.72;4.05;;;;;;;23.72;63.52;100525.84;2032458;84;21112;-73
2022/06/28 09:03:40;;;;;;;4.33;3.72;;;;;;;23.74;63.54;100533.70;2055393;84;21458;-72
2022/06/28 09:06:42;;;;;;;4.35;3.95;;;;;;;23.64;63.37;100528.91;2056769;84;21027;-75
2022/06/28 09:09:43;;;;;;;5.70;4.00;;;;;;;23.63;63.29;100528.63;2057574;84;20969;-73
2022/06/28 09:12:54;;;;;;;3.92;3.62;;;;;;;23.60;63.16;100536.70;2054403;84;21077;-71
2022/06/28 09:15:59;;;;;;;4.15;3.65;;;;;;;23.53;63.12;100537.91;2059012;84;21121;-75
2022/06/28 09:19:00;;;;;;;4.25;3.67;;;;;;;23.50;63.23;100534.61;2051163;84;21595;-73
2022/06/28 09:22:04;;;;;;;4.12;3.72;;;;;;;23.55;63.41;100543.91;2053575;84;21008;-72
2022/06/28 09:25:13;;;;;;;5.05;3.90;;;;;;;23.64;63.43;100539.74;2059768;84;21591;-87
2022/06/28 09:28:28;;;;;;;5.93;4.37;;;;;;;23.74;63.47;100554.02;2056789;84;21073;-72
2022/06/28 09:31:30;;;;;;;4.95;3.75;;;;;;;23.96;63.45;100545.48;2070475;84;21117;-71
2022/06/28 09:34:32;;;;;;;3.77;3.47;;;;;;;24.32;63.40;100542.81;2076190;84;21112;-72
2022/06/28 09:37:42;;;;;;;3.95;3.30;;;;;;;24.85;63.33;100545.25;2077112;84;21065;-82
2022/06/28 09:40:43;;;;;;;2.65;2.45;;;;;;;25.29;62.36;100539.32;2076742;84;20979;-76
2022/06/28 09:43:58;;;;;;;5.87;2.83;;;;;;;25.92;61.59;100541.87;2075141;84;21061;-74
2022/06/28 09:46:59;;;;;;;5.28;2.80;;;;;;;26.34;59.74;100538.41;2054542;84;21002;-78
2022/06/28 09:50:05;;;;;;;4.25;2.80;;;;;;;26.21;57.50;100541.57;2085296;84;21625;-73
2022/06/28 09:53:07;;;;;;;2.85;2.65;;;;;;;26.21;58.55;100552.45;2079479;84;20997;-76
2022/06/28 09:56:10;;;;;;;3.15;2.85;;;;;;;26.25;58.03;100539.17;2078789;84;21010;-77
2022/06/28 09:59:12;;;;;;;4.10;3.27;;;;;;;26.03;57.42;100549.59;2082527;84;21077;-72
2022/06/28 10:02:17;;;;;;;4.53;2.90;;;;;;;25.72;57.30;100550.64;2077961;84;21054;-84
2022/06/28 10:05:19;;;;;;;4.28;3.30;;;;;;;25.41;57.72;100554.93;2081934;84;21022;-72
2022/06/28 10:08:22;;;;;;;6.45;4.05;;;;;;;25.18;58.14;100558.73;2075929;84;21038;-73
2022/06/28 10:11:23;;;;;;;5.15;4.75;;;;;;;24.87;58.50;100563.47;2076212;84;20988;-73
2022/06/28 10:18:04;;;;;;;8.80;4.70;;;;;;;24.18;59.57;100580.82;2062361;84;21012;-75
2022/06/28 10:21:08;;;;;;;5.50;4.20;;;;;;;23.90;59.95;100583.86;2078277;84;21019;-90
2022/06/28 10:24:09;;;;;;;5.42;4.10;;;;;;;23.71;60.36;100589.22;2077000;84;21394;-72
2022/06/28 10:27:13;;;;;;;5.65;4.22;;;;;;;23.50;60.80;100590.13;2079022;84;21104;-76
2022/06/28 10:30:18;;;;;;;4.95;4.53;;;;;;;23.35;61.26;100587.13;2059816;84;21097;-74
2022/06/28 10:33:25;;;;;;;4.33;3.92;;;;;;;23.34;61.51;100588.71;2015693;87;21058;-85
2022/06/28 10:36:31;;;;;;;4.65;4.15;;;;;;;23.34;61.68;100586.00;2007285;87;21037;-75
2022/06/28 10:39:33;;;;;;;5.65;4.45;;;;;;;23.33;61.84;100592.49;2005783;87;21015;-79
2022/06/28 10:42:50;;;;;;;4.67;4.28;;;;;;;23.25;62.00;100588.27;2015602;87;21069;-72
2022/06/28 10:46:08;;;;;;;5.28;4.10;;;;;;;23.24;62.28;100590.69;2016999;86;21546;-73
2022/06/28 10:49:12;;;;;;;4.50;3.62;;;;;;;23.18;62.30;100595.17;2013841;87;21056;-73
2022/06/28 10:52:28;;;;;;;6.37;4.03;;;;;;;23.22;62.56;100591.45;2010719;87;21058;-73
2022/06/28 10:55:30;;;;;;;4.37;3.87;;;;;;;23.36;62.97;100592.83;2009526;87;21140;-73
2022/06/28 10:58:31;;;;;;;4.83;4.42;;;;;;;23.43;62.68;100582.70;2013242;87;21073;-76
2022/06/28 11:01:53;;;;;;;5.60;4.60;;;;;;;23.56;62.57;100597.01;2006799;87;21481;-73
2022/06/28 11:05:08;;;;;;;5.92;4.15;;;;;;;23.62;62.39;100596.03;2008959;86;21042;-75
2022/06/28 11:08:11;;;;;;;3.92;3.60;;;;;;;23.67;62.27;100599.66;1997108;87;21604;-76
2022/06/28 11:11:13;;;;;;;4.92;4.33;;;;;;;23.80;62.37;100603.20;2016165;87;20978;-80
2022/06/28 11:14:31;;;;;;;4.40;4.00;;;;;;;23.94;62.30;100596.41;2014510;87;21089;-76
2022/06/28 11:17:42;;;;;;;6.78;4.65;;;;;;;24.08;62.31;100599.64;1997856;87;21057;-72
2022/06/28 11:20:43;;;;;;;4.53;4.12;;;;;;;24.20;62.09;100604.98;2015100;87;21550;-77
2022/06/28 11:23:45;;;;;;;4.55;3.87;;;;;;;24.10;61.65;100613.75;2013982;87;21095;-72
2022/06/28 11:30:08;;;;;;;;;;;;;;;23.90;61.34;100625.05;2027754;84;21045;-72
2022/06/28 11:33:12;;;;;;;4.05;3.65;;;;;;;23.90;61.47;100625.86;2081509;84;20207;-72
2022/06/28 11:36:26;;;;;;;4.92;4.40;;;;;;;24.00;61.44;100630.66;2083077;84;21003;-74
2022/06/28 11:39:26;;;;;;;6.22;4.47;;;;;;;24.06;61.17;100624.27;2083201;84;21117;-73
2022/06/28 11:42:28;;;;;;;5.95;4.22;;;;;;;24.06;61.03;100635.11;2083639;84;21053;-72
2022/06/28 11:45:31;;;;;;;6.78;5.33;;;;;;;24.01;60.99;100636.36;2084664;84;21052;-74
2022/06/28 11:48:33;;;;;;;11.63;7.90;;;;;;;23.94;60.92;100640.59;2086800;84;21551;-72
2022/06/28 11:51:34;;;;;;;9.48;6.72;;;;;;;23.85;60.88;100640.70;2083725;84;21041;-74
2022/06/28 11:54:36;;;;;;;6.10;5.17;;;;;;;23.88;61.13;100645.62;2084475;84;21075;-72
2022/06/28 11:57:39;;;;;;;5.40;4.90;;;;;;;23.95;60.98;100638.70;2079253;84;21387;-73
2022/06/28 12:01:02;;;;;;;6.45;4.90;;;;;;;24.04;60.90;100640.48;2067751;84;20997;-72
2022/06/28 12:04:06;;;;;;;8.08;7.28;;;;;;;24.16;61.07;100639.37;2083560;83;21105;-84
2022/06/28 12:07:07;;;;;;;7.05;5.40;;;;;;;24.42;60.96;100637.09;2085440;84;21631;-72
2022/06/28 12:10:24;;;;;;;6.33;4.47;;;;;;;24.54;60.63;100637.86;2083275;84;21606;-75
2022/06/28 12:13:27;;;;;;;6.92;5.45;;;;;;;24.69;60.43;100629.12;2083836;84;21128;-72
2022/06/28 12:16:46;;;;;;;7.08;6.37;;;;;;;24.89;60.01;100618.30;2065752;84;21584;-82
2022/06/28 12:19:48;;;;;;;7.45;5.72;;;;;;;25.07;59.77;100607.70;2083992;84;21085;-72
2022/06/28 12:23:03;;;;;;;6.85;5.70;;;;;;;25.25;59.25;100603.34;2062481;84;21021;-75
2022/06/28 12:26:04;;;;;;;6.20;5.67;;;;;;;25.36;58.18;100601.04;2084229;84;20998;-75
2022/06/28 12:29:07;;;;;;;6.78;5.78;;;;;;;25.54;58.76;100603.98;2078124;84;21109;-77
2022/06/28 12:32:10;;;;;;;6.83;6.15;;;;;;;25.81;58.22;100595.83;2061132;84;21092;-86
2022/06/28 12:35:12;;;;;;;6.55;5.83;;;;;;;26.00;57.49;100598.23;2053189;85;21505;-74
2022/06/28 12:38:14;;;;;;;4.83;4.15;;;;;;;26.08;57.09;100603.20;2054506;85;21034;-72
2022/06/28 12:41:16;;;;;;;4.75;4.37;;;;;;;26.23;57.10;100606.05;2053450;85;21137;-88
2022/06/28 12:44:18;;;;;;;4.62;4.22;;;;;;;26.30;56.50;100606.66;2051565;85;20986;-75
2022/06/28 12:47:20;;;;;;;4.50;4.17;;;;;;;26.41;55.07;100610.27;2054615;85;21085;-76
2022/06/28 12:50:22;;;;;;;4.67;4.15;;;;;;;26.43;55.96;100603.22;2053940;85;21689;-72
2022/06/28 12:53:23;;;;;;;5.00;4.62;;;;;;;26.57;55.74;100608.52;2053995;85;20967;-73
2022/06/28 12:56:26;;;;;;;5.10;4.70;;;;;;;26.72;55.15;100605.92;2051486;84;21054;-89
2022/06/28 12:59:27;;;;;;;5.37;4.78;;;;;;;26.78;54.71;100608.14;2055311;85;21103;-73
2022/06/28 13:02:29;;;;;;;4.83;4.33;;;;;;;26.74;54.42;100602.92;2050301;85;21690;-76
2022/06/28 13:05:31;;;;;;;7.17;4.33;;;;;;;26.63;54.68;100599.31;2055057;85;21045;-72
2022/06/28 13:08:32;;;;;;;6.60;4.30;;;;;;;26.69;53.97;100596.89;2057005;85;21057;-77
2022/06/28 13:11:37;;;;;;;7.17;5.00;;;;;;;26.62;54.04;100586.80;2048726;85;21054;-73
2022/06/28 13:14:39;;;;;;;5.80;5.22;;;;;;;26.63;54.05;100584.34;2052639;85;21552;-72
2022/06/28 13:17:41;;;;;;;5.00;4.50;;;;;;;26.58;53.90;100580.22;2053116;85;21536;-73
2022/06/28 13:20:43;;;;;;;4.65;4.22;;;;;;;26.56;53.52;100576.96;2054586;85;20998;-75
2022/06/28 13:23:46;;;;;;;4.05;3.75;;;;;;;26.76;53.74;100568.92;2052008;85;21501;-73
2022/06/28 13:26:48;;;;;;;5.35;3.85;;;;;;;27.02;53.71;100553.53;2055398;85;20979;-72
2022/06/28 13:29:50;;;;;;;4.45;4.05;;;;;;;27.35;53.07;100541.16;2050152;84;21041;-73
2022/06/28 13:32:51;;;;;;;4.95;4.00;;;;;;;27.38;52.51;100545.52;2059780;84;21061;-72
2022/06/28 13:35:54;;;;;;;8.40;5.25;;;;;;;27.30;52.80;100540.59;2054862;84;21126;-72
2022/06/28 13:38:56;;;;;;;4.30;3.90;;;;;;;27.33;52.47;100535.97;2053348;84;20962;-75
2022/06/28 13:41:57;;;;;;;4.20;3.90;;;;;;;27.35;52.34;100533.80;2056267;84;21590;-73
2022/06/28 13:45:01;;;;;;;4.25;3.95;;;;;;;27.25;52.12;100532.41;2059869;84;21050;-74
2022/06/28 13:48:05;;;;;;;5.17;4.67;;;;;;;27.21;52.13;100533.48;2050368;84;21045;-72
2022/06/28 13:51:08;;;;;;;6.15;4.12;;;;;;;27.18;52.38;100527.21;2048980;84;21109;-74
2022/06/28 13:54:11;;;;;;;4.15;3.75;;;;;;;27.05;52.24;100533.93;2053507;84;20977;-72
2022/06/28 13:57:16;;;;;;;4.37;3.80;;;;;;;27.10;52.03;100531.78;2055337;84;21061;-86
2022/06/28 14:00:19;;;;;;;4.25;3.85;;;;;;;27.19;52.33;100524.75;2046599;84;21084;-72
2022/06/28 14:03:21;;;;;;;4.58;4.17;;;;;;;27.29;51.83;100519.90;2050716;84;21069;-75
2022/06/28 14:06:23;;;;;;;5.17;3.80;;;;;;;27.36;52.32;100519.09;2052465;84;21601;-73
2022/06/28 14:09:25;;;;;;;4.47;4.05;;;;;;;27.45;52.14;100527.55;2047766;84;21013;-87
2022/06/28 14:12:27;;;;;;;3.80;3.50;;;;;;;27.54;51.79;100520.50;2058067;84;21041;-72
2022/06/28 14:15:30;;;;;;;3.55;3.25;;;;;;;27.57;51.19;100518.59;2052253;84;21049;-73
2022/06/28 14:18:32;;;;;;;5.10;4.60;;;;;;;27.58;51.45;100514.77;2058162;84;21010;-73
2022/06/28 14:21:34;;;;;;;6.35;3.80;;;;;;;27.63;51.07;100510.70;2055934;84;21042;-76
2022/06/28 14:24:37;;;;;;;5.03;4.00;;;;;;;27.58;50.43;100507.96;2056875;84;21038;-72
2022/06/28 14:27:39;;;;;;;4.15;3.75;;;;;;;27.47;49.93;100500.86;2056014;84;21093;-72
2022/06/28 14:30:42;;;;;;;3.65;3.35;;;;;;;27.38;50.29;100490.22;2054936;84;20943;-73